sensor_id;sensor_type;location;lat;lon;timestamp;temperature;humidity
21616;DHT22;10970;48.714;9.584;2022-09-09T00:00:18;13.00;99.90
21616;DHT22;10970;48.714;9.584;2022-09-09T00:03:02;12.90;99.90
21616;DHT22;10970;48.714;9.584;2022-09-09T00:05:55;13.00;99.90
21616;DHT22;10970;48.714;9.584;2022-09-09T00:08:20;13.00;99.90
21616;DHT22;10970;48.714;9.584;2022-09-09T00:10:58;13.00;99.90
21616;DHT22;10970;48.714;9.584;2022-09-09T00:13:41;12.90;99.90
21616;DHT22;10970;48.714;9.584;2022-09-09T00:16:15;12.90;99.90
21616;DHT22;10970;48.714;9.584;2022-09-09T00:21:47;12.90;99.90
21616;DHT22;10970;48.714;9.584;2022-09-09T00:24:28;12.90;99.90
21616;DHT22;10970;48.714;9.584;2022-09-09T00:32:39;12.80;99.90
21616;DHT22;10970;48.714;9.584;2022-09-09T00:37:58;12.70;99.90
21616;DHT22;10970;48.714;9.584;2022-09-09T00:48:13;12.80;99.90
21616;DHT22;10970;48.714;9.584;2022-09-09T00:50:53;12.70;99.90
21616;DHT22;10970;48.714;9.584;2022-09-09T00:58:27;12.70;99.90
21616;DHT22;10970;48.714;9.584;2022-09-09T01:01:05;12.80;99.90
21616;DHT22;10970;48.714;9.584;2022-09-09T01:03:35;12.90;99.90
21616;DHT22;10970;48.714;9.584;2022-09-09T01:12:15;12.90;99.90
21616;DHT22;10970;48.714;9.584;2022-09-09T01:14:48;12.90;99.90
21616;DHT22;10970;48.714;9.584;2022-09-09T01:17:21;12.90;99.90
21616;DHT22;10970;48.714;9.584;2022-09-09T01:20:04;12.90;99.90
21616;DHT22;10970;48.714;9.584;2022-09-09T01:26:10;12.90;99.90
21616;DHT22;10970;48.714;9.584;2022-09-09T01:28:39;12.90;99.90
21616;DHT22;10970;48.714;9.584;2022-09-09T01:31:06;12.90;99.90
21616;DHT22;10970;48.714;9.584;2022-09-09T01:33:34;12.90;99.90
21616;DHT22;10970;48.714;9.584;2022-09-09T01:38:29;12.70;99.90
21616;DHT22;10970;48.714;9.584;2022-09-09T01:40:55;12.70;99.90
21616;DHT22;10970;48.714;9.584;2022-09-09T01:43:21;12.50;99.90
21616;DHT22;10970;48.714;9.584;2022-09-09T01:45:49;12.50;99.90
21616;DHT22;10970;48.714;9.584;2022-09-09T01:48:17;12.60;99.90
21616;DHT22;10970;48.714;9.584;2022-09-09T01:50:43;12.60;99.90
21616;DHT22;10970;48.714;9.584;2022-09-09T01:53:09;12.50;99.90
21616;DHT22;10970;48.714;9.584;2022-09-09T01:55:40;12.50;99.90
21616;DHT22;10970;48.714;9.584;2022-09-09T02:03:35;12.50;99.90
21616;DHT22;10970;48.714;9.584;2022-09-09T02:08:52;12.50;99.90
21616;DHT22;10970;48.714;9.584;2022-09-09T02:11:19;12.50;99.90
21616;DHT22;10970;48.714;9.584;2022-09-09T02:13:47;12.50;99.90
21616;DHT22;10970;48.714;9.584;2022-09-09T02:16:34;12.40;99.90
21616;DHT22;10970;48.714;9.584;2022-09-09T02:21:35;12.30;99.90
21616;DHT22;10970;48.714;9.584;2022-09-09T02:24:05;12.20;99.90
21616;DHT22;10970;48.714;9.584;2022-09-09T02:26:34;12.20;99.90
21616;DHT22;10970;48.714;9.584;2022-09-09T02:29:03;12.20;99.90
21616;DHT22;10970;48.714;9.584;2022-09-09T02:31:32;12.20;99.90
21616;DHT22;10970;48.714;9.584;2022-09-09T02:34:00;12.20;99.90
21616;DHT22;10970;48.714;9.584;2022-09-09T02:36:30;12.20;99.90
21616;DHT22;10970;48.714;9.584;2022-09-09T02:38:56;12.20;99.90
21616;DHT22;10970;48.714;9.584;2022-09-09T02:41:39;12.30;99.90
21616;DHT22;10970;48.714;9.584;2022-09-09T02:44:13;12.30;99.90
21616;DHT22;10970;48.714;9.584;2022-09-09T02:50:14;12.30;99.90
21616;DHT22;10970;48.714;9.584;2022-09-09T02:52:17;12.20;99.90
21616;DHT22;10970;48.714;9.584;2022-09-09T02:54:44;12.20;99.90
21616;DHT22;10970;48.714;9.584;2022-09-09T02:57:27;12.10;99.90
21616;DHT22;10970;48.714;9.584;2022-09-09T02:59:53;12.00;99.90
21616;DHT22;10970;48.714;9.584;2022-09-09T03:02:22;12.10;99.90
21616;DHT22;10970;48.714;9.584;2022-09-09T03:04:48;12.10;99.90
21616;DHT22;10970;48.714;9.584;2022-09-09T03:07:18;12.20;99.90
21616;DHT22;10970;48.714;9.584;2022-09-09T03:09:44;12.10;99.90
21616;DHT22;10970;48.714;9.584;2022-09-09T03:12:10;12.10;99.90
21616;DHT22;10970;48.714;9.584;2022-09-09T03:14:37;12.10;99.90
21616;DHT22;10970;48.714;9.584;2022-09-09T03:17:04;12.10;99.90
21616;DHT22;10970;48.714;9.584;2022-09-09T03:19:30;12.00;99.90
21616;DHT22;10970;48.714;9.584;2022-09-09T03:21:55;12.10;99.90
21616;DHT22;10970;48.714;9.584;2022-09-09T03:24:21;12.10;99.90
21616;DHT22;10970;48.714;9.584;2022-09-09T03:26:48;12.10;99.90
21616;DHT22;10970;48.714;9.584;2022-09-09T03:29:15;12.10;99.90
21616;DHT22;10970;48.714;9.584;2022-09-09T03:31:43;12.20;99.90
21616;DHT22;10970;48.714;9.584;2022-09-09T03:34:08;12.20;99.90
21616;DHT22;10970;48.714;9.584;2022-09-09T03:36:34;12.20;99.90
21616;DHT22;10970;48.714;9.584;2022-09-09T03:39:00;12.20;99.90
21616;DHT22;10970;48.714;9.584;2022-09-09T03:41:26;12.20;99.90
21616;DHT22;10970;48.714;9.584;2022-09-09T03:43:53;12.20;99.90
21616;DHT22;10970;48.714;9.584;2022-09-09T03:46:24;12.30;99.90
21616;DHT22;10970;48.714;9.584;2022-09-09T03:48:50;12.20;99.90
21616;DHT22;10970;48.714;9.584;2022-09-09T03:51:18;12.20;99.90
21616;DHT22;10970;48.714;9.584;2022-09-09T03:53:44;12.30;99.90
21616;DHT22;10970;48.714;9.584;2022-09-09T03:56:10;12.20;99.90
21616;DHT22;10970;48.714;9.584;2022-09-09T03:58:37;12.20;99.90
21616;DHT22;10970;48.714;9.584;2022-09-09T04:01:05;12.30;99.90
21616;DHT22;10970;48.714;9.584;2022-09-09T04:03:31;12.30;99.90
21616;DHT22;10970;48.714;9.584;2022-09-09T04:06:01;12.30;99.90
21616;DHT22;10970;48.714;9.584;2022-09-09T04:08:28;12.30;99.90
21616;DHT22;10970;48.714;9.584;2022-09-09T04:10:56;12.30;99.90
21616;DHT22;10970;48.714;9.584;2022-09-09T04:13:24;12.30;99.90
21616;DHT22;10970;48.714;9.584;2022-09-09T04:15:57;12.30;99.90
21616;DHT22;10970;48.714;9.584;2022-09-09T04:18:23;12.30;99.90
21616;DHT22;10970;48.714;9.584;2022-09-09T04:20:50;12.30;99.90
21616;DHT22;10970;48.714;9.584;2022-09-09T04:23:17;12.30;99.90
21616;DHT22;10970;48.714;9.584;2022-09-09T04:25:52;12.30;99.90
21616;DHT22;10970;48.714;9.584;2022-09-09T04:28:20;12.30;99.90
21616;DHT22;10970;48.714;9.584;2022-09-09T04:30:46;12.20;99.90
21616;DHT22;10970;48.714;9.584;2022-09-09T04:33:12;12.30;99.90
21616;DHT22;10970;48.714;9.584;2022-09-09T04:35:39;12.30;99.90
21616;DHT22;10970;48.714;9.584;2022-09-09T04:38:05;12.30;99.90
21616;DHT22;10970;48.714;9.584;2022-09-09T04:40:34;12.30;99.90
21616;DHT22;10970;48.714;9.584;2022-09-09T04:43:01;12.20;99.90
21616;DHT22;10970;48.714;9.584;2022-09-09T04:45:28;12.20;99.90
21616;DHT22;10970;48.714;9.584;2022-09-09T04:47:54;12.20;99.90
21616;DHT22;10970;48.714;9.584;2022-09-09T04:50:19;12.20;99.90
21616;DHT22;10970;48.714;9.584;2022-09-09T04:52:45;12.20;99.90
21616;DHT22;10970;48.714;9.584;2022-09-09T04:55:11;12.10;99.90
21616;DHT22;10970;48.714;9.584;2022-09-09T04:57:38;12.10;99.90
21616;DHT22;10970;48.714;9.584;2022-09-09T05:00:05;12.10;99.90
21616;DHT22;10970;48.714;9.584;2022-09-09T05:02:30;12.20;99.90
21616;DHT22;10970;48.714;9.584;2022-09-09T05:04:57;12.20;99.90
21616;DHT22;10970;48.714;9.584;2022-09-09T05:07:23;12.20;99.90
21616;DHT22;10970;48.714;9.584;2022-09-09T05:09:51;12.20;99.90
21616;DHT22;10970;48.714;9.584;2022-09-09T05:12:17;12.20;99.90
21616;DHT22;10970;48.714;9.584;2022-09-09T05:14:43;12.20;99.90
21616;DHT22;10970;48.714;9.584;2022-09-09T05:17:09;12.20;99.90
21616;DHT22;10970;48.714;9.584;2022-09-09T05:19:34;12.20;99.90
21616;DHT22;10970;48.714;9.584;2022-09-09T05:22:00;12.20;99.90
21616;DHT22;10970;48.714;9.584;2022-09-09T05:24:26;12.30;99.90
21616;DHT22;10970;48.714;9.584;2022-09-09T05:26:52;12.30;99.90
21616;DHT22;10970;48.714;9.584;2022-09-09T05:29:18;12.40;99.90
21616;DHT22;10970;48.714;9.584;2022-09-09T05:31:46;12.40;99.90
21616;DHT22;10970;48.714;9.584;2022-09-09T05:34:12;12.30;99.90
21616;DHT22;10970;48.714;9.584;2022-09-09T05:36:38;12.40;99.90
21616;DHT22;10970;48.714;9.584;2022-09-09T05:39:04;12.40;99.90
21616;DHT22;10970;48.714;9.584;2022-09-09T05:41:29;12.40;99.90
21616;DHT22;10970;48.714;9.584;2022-09-09T05:43:57;12.30;99.90
21616;DHT22;10970;48.714;9.584;2022-09-09T05:46:25;12.30;99.90
21616;DHT22;10970;48.714;9.584;2022-09-09T05:48:52;12.30;99.90
21616;DHT22;10970;48.714;9.584;2022-09-09T05:51:23;12.30;99.90
21616;DHT22;10970;48.714;9.584;2022-09-09T05:53:49;12.40;99.90
21616;DHT22;10970;48.714;9.584;2022-09-09T05:56:22;12.50;99.90
21616;DHT22;10970;48.714;9.584;2022-09-09T05:58:49;12.60;99.90
21616;DHT22;10970;48.714;9.584;2022-09-09T06:01:16;12.70;99.90
21616;DHT22;10970;48.714;9.584;2022-09-09T06:03:43;12.90;99.90
21616;DHT22;10970;48.714;9.584;2022-09-09T06:06:11;12.90;99.90
21616;DHT22;10970;48.714;9.584;2022-09-09T06:08:39;13.00;99.90
21616;DHT22;10970;48.714;9.584;2022-09-09T06:11:10;13.20;99.90
21616;DHT22;10970;48.714;9.584;2022-09-09T06:13:37;13.20;99.90
21616;DHT22;10970;48.714;9.584;2022-09-09T06:16:06;13.20;99.90
21616;DHT22;10970;48.714;9.584;2022-09-09T06:18:33;13.10;99.90
21616;DHT22;10970;48.714;9.584;2022-09-09T06:21:02;13.10;99.90
21616;DHT22;10970;48.714;9.584;2022-09-09T06:23:33;13.10;99.90
21616;DHT22;10970;48.714;9.584;2022-09-09T06:26:21;13.30;99.90
21616;DHT22;10970;48.714;9.584;2022-09-09T06:28:49;13.50;99.90
21616;DHT22;10970;48.714;9.584;2022-09-09T06:31:18;13.70;99.90
21616;DHT22;10970;48.714;9.584;2022-09-09T06:33:48;14.00;99.90
21616;DHT22;10970;48.714;9.584;2022-09-09T06:36:34;14.10;99.90
21616;DHT22;10970;48.714;9.584;2022-09-09T06:39:01;14.30;99.90
21616;DHT22;10970;48.714;9.584;2022-09-09T06:41:28;14.40;99.90
21616;DHT22;10970;48.714;9.584;2022-09-09T06:43:55;14.50;99.90
21616;DHT22;10970;48.714;9.584;2022-09-09T06:46:25;14.90;99.90
21616;DHT22;10970;48.714;9.584;2022-09-09T06:48:55;14.90;99.90
21616;DHT22;10970;48.714;9.584;2022-09-09T06:51:22;15.00;99.90
21616;DHT22;10970;48.714;9.584;2022-09-09T06:53:53;15.20;99.90
21616;DHT22;10970;48.714;9.584;2022-09-09T06:58:49;15.40;99.90
21616;DHT22;10970;48.714;9.584;2022-09-09T07:01:17;15.60;99.90
21616;DHT22;10970;48.714;9.584;2022-09-09T07:03:50;15.70;99.90
21616;DHT22;10970;48.714;9.584;2022-09-09T07:06:21;16.00;99.90
21616;DHT22;10970;48.714;9.584;2022-09-09T07:08:52;16.30;99.90
21616;DHT22;10970;48.714;9.584;2022-09-09T07:11:19;16.30;99.90
21616;DHT22;10970;48.714;9.584;2022-09-09T07:13:45;16.30;99.90
21616;DHT22;10970;48.714;9.584;2022-09-09T07:16:15;16.10;99.90
21616;DHT22;10970;48.714;9.584;2022-09-09T07:18:41;16.30;99.90
21616;DHT22;10970;48.714;9.584;2022-09-09T07:21:08;16.20;99.90
21616;DHT22;10970;48.714;9.584;2022-09-09T07:23:35;16.30;99.90
21616;DHT22;10970;48.714;9.584;2022-09-09T07:26:08;16.20;99.90
21616;DHT22;10970;48.714;9.584;2022-09-09T07:28:34;16.10;99.90
21616;DHT22;10970;48.714;9.584;2022-09-09T07:31:01;16.10;99.90
21616;DHT22;10970;48.714;9.584;2022-09-09T07:33:31;16.20;99.90
21616;DHT22;10970;48.714;9.584;2022-09-09T07:36:15;16.20;99.90
21616;DHT22;10970;48.714;9.584;2022-09-09T07:38:42;16.40;99.90
21616;DHT22;10970;48.714;9.584;2022-09-09T07:41:21;16.40;99.90
21616;DHT22;10970;48.714;9.584;2022-09-09T07:43:48;16.60;99.90
21616;DHT22;10970;48.714;9.584;2022-09-09T07:46:16;16.80;99.90
21616;DHT22;10970;48.714;9.584;2022-09-09T07:48:50;16.90;99.90
21616;DHT22;10970;48.714;9.584;2022-09-09T07:51:19;16.80;99.90
21616;DHT22;10970;48.714;9.584;2022-09-09T07:53:47;17.00;99.90
21616;DHT22;10970;48.714;9.584;2022-09-09T07:56:15;17.00;99.90
21616;DHT22;10970;48.714;9.584;2022-09-09T07:58:44;17.60;99.90
21616;DHT22;10970;48.714;9.584;2022-09-09T08:01:13;17.70;99.90
21616;DHT22;10970;48.714;9.584;2022-09-09T08:03:39;17.60;99.90
21616;DHT22;10970;48.714;9.584;2022-09-09T08:06:07;17.50;99.90
21616;DHT22;10970;48.714;9.584;2022-09-09T08:08:34;17.40;99.90
21616;DHT22;10970;48.714;9.584;2022-09-09T08:11:12;17.50;99.90
21616;DHT22;10970;48.714;9.584;2022-09-09T08:13:39;17.60;99.90
21616;DHT22;10970;48.714;9.584;2022-09-09T08:16:12;17.60;99.90
21616;DHT22;10970;48.714;9.584;2022-09-09T08:18:38;17.40;99.90
21616;DHT22;10970;48.714;9.584;2022-09-09T08:21:12;17.30;99.90
21616;DHT22;10970;48.714;9.584;2022-09-09T08:23:42;17.40;99.90
21616;DHT22;10970;48.714;9.584;2022-09-09T08:26:14;18.20;99.90
21616;DHT22;10970;48.714;9.584;2022-09-09T08:28:40;18.30;99.90
21616;DHT22;10970;48.714;9.584;2022-09-09T08:31:13;17.90;99.90
21616;DHT22;10970;48.714;9.584;2022-09-09T08:33:39;17.80;99.90
21616;DHT22;10970;48.714;9.584;2022-09-09T08:36:08;18.20;99.90
21616;DHT22;10970;48.714;9.584;2022-09-09T08:38:34;18.30;99.90
21616;DHT22;10970;48.714;9.584;2022-09-09T08:44:10;19.20;99.90
21616;DHT22;10970;48.714;9.584;2022-09-09T08:52:17;20.20;99.90
21616;DHT22;10970;48.714;9.584;2022-09-09T08:54:44;20.20;99.90
21616;DHT22;10970;48.714;9.584;2022-09-09T08:57:16;20.30;99.90
21616;DHT22;10970;48.714;9.584;2022-09-09T08:59:44;19.90;99.90
21616;DHT22;10970;48.714;9.584;2022-09-09T09:02:42;19.80;99.90
21616;DHT22;10970;48.714;9.584;2022-09-09T09:05:32;19.80;99.90
21616;DHT22;10970;48.714;9.584;2022-09-09T09:11:03;19.80;99.90
21616;DHT22;10970;48.714;9.584;2022-09-09T09:16:34;19.50;99.90
21616;DHT22;10970;48.714;9.584;2022-09-09T09:19:03;19.60;99.90
21616;DHT22;10970;48.714;9.584;2022-09-09T09:21:45;19.80;99.90
21616;DHT22;10970;48.714;9.584;2022-09-09T09:24:23;19.90;99.90
21616;DHT22;10970;48.714;9.584;2022-09-09T09:26:51;20.00;99.90
21616;DHT22;10970;48.714;9.584;2022-09-09T09:29:19;20.10;99.90
21616;DHT22;10970;48.714;9.584;2022-09-09T09:31:55;20.30;99.90
21616;DHT22;10970;48.714;9.584;2022-09-09T09:34:23;20.30;99.90
21616;DHT22;10970;48.714;9.584;2022-09-09T09:36:53;20.40;99.90
21616;DHT22;10970;48.714;9.584;2022-09-09T09:39:28;20.80;99.90
21616;DHT22;10970;48.714;9.584;2022-09-09T09:41:54;21.00;99.90
21616;DHT22;10970;48.714;9.584;2022-09-09T09:44:27;21.50;99.90
21616;DHT22;10970;48.714;9.584;2022-09-09T09:49:31;21.70;99.90
21616;DHT22;10970;48.714;9.584;2022-09-09T09:52:12;21.80;99.90
21616;DHT22;10970;48.714;9.584;2022-09-09T09:54:41;22.20;99.90
21616;DHT22;10970;48.714;9.584;2022-09-09T09:57:12;22.20;99.90
21616;DHT22;10970;48.714;9.584;2022-09-09T09:59:39;21.90;99.90
21616;DHT22;10970;48.714;9.584;2022-09-09T10:02:17;21.80;99.90
21616;DHT22;10970;48.714;9.584;2022-09-09T10:04:43;21.80;99.90
21616;DHT22;10970;48.714;9.584;2022-09-09T10:07:19;21.80;99.90
21616;DHT22;10970;48.714;9.584;2022-09-09T10:09:45;21.50;99.90
21616;DHT22;10970;48.714;9.584;2022-09-09T10:34:43;21.10;99.90
21616;DHT22;10970;48.714;9.584;2022-09-09T10:57:19;21.60;99.90
21616;DHT22;10970;48.714;9.584;2022-09-09T10:59:52;21.70;99.90
21616;DHT22;10970;48.714;9.584;2022-09-09T11:02:27;21.60;99.90
21616;DHT22;10970;48.714;9.584;2022-09-09T11:05:03;21.20;99.90
21616;DHT22;10970;48.714;9.584;2022-09-09T11:07:42;21.30;99.90
21616;DHT22;10970;48.714;9.584;2022-09-09T11:13:02;21.60;99.90
21616;DHT22;10970;48.714;9.584;2022-09-09T11:15:39;21.50;99.90
21616;DHT22;10970;48.714;9.584;2022-09-09T11:18:10;21.40;99.90
21616;DHT22;10970;48.714;9.584;2022-09-09T11:20:39;21.20;99.90
21616;DHT22;10970;48.714;9.584;2022-09-09T11:23:15;21.40;99.90
21616;DHT22;10970;48.714;9.584;2022-09-09T11:25:47;21.90;99.90
21616;DHT22;10970;48.714;9.584;2022-09-09T11:28:37;22.20;99.90
21616;DHT22;10970;48.714;9.584;2022-09-09T11:31:32;22.20;99.90
21616;DHT22;10970;48.714;9.584;2022-09-09T11:42:40;22.50;99.90
21616;DHT22;10970;48.714;9.584;2022-09-09T11:47:57;23.20;99.90
21616;DHT22;10970;48.714;9.584;2022-09-09T11:52:49;22.50;99.90
21616;DHT22;10970;48.714;9.584;2022-09-09T11:58:02;22.10;99.90
21616;DHT22;10970;48.714;9.584;2022-09-09T12:03:03;21.40;99.90
21616;DHT22;10970;48.714;9.584;2022-09-09T12:05:46;21.50;99.90
21616;DHT22;10970;48.714;9.584;2022-09-09T12:08:16;21.10;99.90
21616;DHT22;10970;48.714;9.584;2022-09-09T12:10:57;20.60;99.90
21616;DHT22;10970;48.714;9.584;2022-09-09T12:13:26;19.80;99.90
21616;DHT22;10970;48.714;9.584;2022-09-09T12:15:56;19.50;99.90
21616;DHT22;10970;48.714;9.584;2022-09-09T12:23:49;19.00;99.90
21616;DHT22;10970;48.714;9.584;2022-09-09T12:26:38;19.40;99.90
21616;DHT22;10970;48.714;9.584;2022-09-09T12:32:11;19.10;99.90
21616;DHT22;10970;48.714;9.584;2022-09-09T12:34:40;19.00;99.90
21616;DHT22;10970;48.714;9.584;2022-09-09T12:37:28;19.00;99.90
21616;DHT22;10970;48.714;9.584;2022-09-09T12:40:37;19.40;99.90
21616;DHT22;10970;48.714;9.584;2022-09-09T12:42:44;19.80;99.90
21616;DHT22;10970;48.714;9.584;2022-09-09T12:45:24;19.90;99.90
21616;DHT22;10970;48.714;9.584;2022-09-09T12:48:03;19.90;99.90
21616;DHT22;10970;48.714;9.584;2022-09-09T12:50:57;19.90;99.90
21616;DHT22;10970;48.714;9.584;2022-09-09T12:53:24;19.70;99.90
21616;DHT22;10970;48.714;9.584;2022-09-09T12:55:58;19.90;99.90
21616;DHT22;10970;48.714;9.584;2022-09-09T12:58:25;19.80;99.90
21616;DHT22;10970;48.714;9.584;2022-09-09T13:00:54;19.80;99.90
21616;DHT22;10970;48.714;9.584;2022-09-09T13:03:24;19.70;99.90
21616;DHT22;10970;48.714;9.584;2022-09-09T13:05:53;19.90;99.90
21616;DHT22;10970;48.714;9.584;2022-09-09T13:08:19;20.10;99.90
21616;DHT22;10970;48.714;9.584;2022-09-09T13:10:54;20.20;99.90
21616;DHT22;10970;48.714;9.584;2022-09-09T13:13:26;20.10;99.90
21616;DHT22;10970;48.714;9.584;2022-09-09T13:15:57;20.40;99.90
21616;DHT22;10970;48.714;9.584;2022-09-09T13:18:34;20.50;99.90
21616;DHT22;10970;48.714;9.584;2022-09-09T13:21:01;20.70;99.90
21616;DHT22;10970;48.714;9.584;2022-09-09T13:23:34;20.80;99.90
21616;DHT22;10970;48.714;9.584;2022-09-09T13:26:03;20.80;99.90
21616;DHT22;10970;48.714;9.584;2022-09-09T13:28:30;21.00;99.90
21616;DHT22;10970;48.714;9.584;2022-09-09T13:31:04;21.00;99.90
21616;DHT22;10970;48.714;9.584;2022-09-09T13:33:37;21.20;99.90
21616;DHT22;10970;48.714;9.584;2022-09-09T13:36:06;21.10;99.90
21616;DHT22;10970;48.714;9.584;2022-09-09T13:38:40;21.30;99.90
21616;DHT22;10970;48.714;9.584;2022-09-09T13:41:08;21.20;99.90
21616;DHT22;10970;48.714;9.584;2022-09-09T13:46:04;21.00;99.90
21616;DHT22;10970;48.714;9.584;2022-09-09T13:48:31;21.30;99.90
21616;DHT22;10970;48.714;9.584;2022-09-09T13:50:59;21.50;99.90
21616;DHT22;10970;48.714;9.584;2022-09-09T13:53:25;21.70;99.90
21616;DHT22;10970;48.714;9.584;2022-09-09T13:55:51;21.70;99.90
21616;DHT22;10970;48.714;9.584;2022-09-09T13:58:18;21.70;99.90
21616;DHT22;10970;48.714;9.584;2022-09-09T14:00:45;21.80;99.90
21616;DHT22;10970;48.714;9.584;2022-09-09T14:03:11;22.10;99.90
21616;DHT22;10970;48.714;9.584;2022-09-09T14:05:36;22.10;99.90
21616;DHT22;10970;48.714;9.584;2022-09-09T14:08:07;21.90;99.90
21616;DHT22;10970;48.714;9.584;2022-09-09T14:10:33;21.90;99.90
21616;DHT22;10970;48.714;9.584;2022-09-09T14:13:02;21.80;99.90
21616;DHT22;10970;48.714;9.584;2022-09-09T14:15:28;22.20;99.90
21616;DHT22;10970;48.714;9.584;2022-09-09T14:17:54;22.60;99.90
21616;DHT22;10970;48.714;9.584;2022-09-09T14:20:20;22.70;99.90
21616;DHT22;10970;48.714;9.584;2022-09-09T14:22:45;22.70;99.90
21616;DHT22;10970;48.714;9.584;2022-09-09T14:25:11;22.30;99.90
21616;DHT22;10970;48.714;9.584;2022-09-09T14:27:39;22.10;99.90
21616;DHT22;10970;48.714;9.584;2022-09-09T14:30:05;22.00;99.90
21616;DHT22;10970;48.714;9.584;2022-09-09T14:32:31;21.80;99.90
21616;DHT22;10970;48.714;9.584;2022-09-09T14:34:57;21.90;99.90
21616;DHT22;10970;48.714;9.584;2022-09-09T14:37:22;22.00;99.90
21616;DHT22;10970;48.714;9.584;2022-09-09T14:39:49;21.80;99.90
21616;DHT22;10970;48.714;9.584;2022-09-09T14:42:16;21.60;99.90
21616;DHT22;10970;48.714;9.584;2022-09-09T14:44:42;21.60;99.90
21616;DHT22;10970;48.714;9.584;2022-09-09T14:47:08;21.60;99.90
21616;DHT22;10970;48.714;9.584;2022-09-09T14:49:38;21.40;99.90
21616;DHT22;10970;48.714;9.584;2022-09-09T14:52:04;21.50;99.90
21616;DHT22;10970;48.714;9.584;2022-09-09T14:54:31;21.70;99.90
21616;DHT22;10970;48.714;9.584;2022-09-09T14:56:57;21.70;99.90
21616;DHT22;10970;48.714;9.584;2022-09-09T14:59:23;21.60;99.90
21616;DHT22;10970;48.714;9.584;2022-09-09T15:01:49;21.70;99.90
21616;DHT22;10970;48.714;9.584;2022-09-09T15:04:15;21.80;99.90
21616;DHT22;10970;48.714;9.584;2022-09-09T15:06:42;22.00;99.90
21616;DHT22;10970;48.714;9.584;2022-09-09T15:09:10;22.30;99.90
21616;DHT22;10970;48.714;9.584;2022-09-09T15:11:37;22.20;99.90
21616;DHT22;10970;48.714;9.584;2022-09-09T15:14:07;22.00;99.90
21616;DHT22;10970;48.714;9.584;2022-09-09T15:16:34;21.80;99.90
21616;DHT22;10970;48.714;9.584;2022-09-09T15:19:00;21.80;99.90
21616;DHT22;10970;48.714;9.584;2022-09-09T15:21:29;21.60;99.90
21616;DHT22;10970;48.714;9.584;2022-09-09T15:23:55;21.60;99.90
21616;DHT22;10970;48.714;9.584;2022-09-09T15:26:22;22.00;99.90
21616;DHT22;10970;48.714;9.584;2022-09-09T15:28:49;22.20;99.90
21616;DHT22;10970;48.714;9.584;2022-09-09T15:31:21;22.20;99.90
21616;DHT22;10970;48.714;9.584;2022-09-09T15:33:52;22.00;99.90
21616;DHT22;10970;48.714;9.584;2022-09-09T15:36:26;21.80;99.90
21616;DHT22;10970;48.714;9.584;2022-09-09T15:38:54;21.60;99.90
21616;DHT22;10970;48.714;9.584;2022-09-09T15:41:21;21.20;99.90
21616;DHT22;10970;48.714;9.584;2022-09-09T15:43:50;21.10;99.90
21616;DHT22;10970;48.714;9.584;2022-09-09T15:48:57;20.90;99.90
21616;DHT22;10970;48.714;9.584;2022-09-09T15:51:23;20.80;99.90
21616;DHT22;10970;48.714;9.584;2022-09-09T15:53:57;20.80;99.90
21616;DHT22;10970;48.714;9.584;2022-09-09T15:56:25;20.90;99.90
21616;DHT22;10970;48.714;9.584;2022-09-09T15:58:51;20.90;99.90
21616;DHT22;10970;48.714;9.584;2022-09-09T16:01:17;20.90;99.90
21616;DHT22;10970;48.714;9.584;2022-09-09T16:03:45;21.00;99.90
21616;DHT22;10970;48.714;9.584;2022-09-09T16:06:17;20.90;99.90
21616;DHT22;10970;48.714;9.584;2022-09-09T16:08:45;21.00;99.90
21616;DHT22;10970;48.714;9.584;2022-09-09T16:11:21;21.00;99.90
21616;DHT22;10970;48.714;9.584;2022-09-09T16:13:49;20.90;99.90
21616;DHT22;10970;48.714;9.584;2022-09-09T16:16:16;20.70;99.90
21616;DHT22;10970;48.714;9.584;2022-09-09T16:18:51;20.60;99.90
21616;DHT22;10970;48.714;9.584;2022-09-09T16:21:20;20.60;99.90
21616;DHT22;10970;48.714;9.584;2022-09-09T16:23:46;20.50;99.90
21616;DHT22;10970;48.714;9.584;2022-09-09T16:26:13;20.40;99.90
21616;DHT22;10970;48.714;9.584;2022-09-09T16:28:40;20.30;99.90
21616;DHT22;10970;48.714;9.584;2022-09-09T16:31:11;20.30;99.90
21616;DHT22;10970;48.714;9.584;2022-09-09T16:33:39;20.20;99.90
21616;DHT22;10970;48.714;9.584;2022-09-09T16:36:13;20.10;99.90
21616;DHT22;10970;48.714;9.584;2022-09-09T16:38:40;20.10;99.90
21616;DHT22;10970;48.714;9.584;2022-09-09T16:41:06;20.10;99.90
21616;DHT22;10970;48.714;9.584;2022-09-09T16:43:33;20.20;99.90
21616;DHT22;10970;48.714;9.584;2022-09-09T16:45:59;20.10;99.90
21616;DHT22;10970;48.714;9.584;2022-09-09T16:48:32;20.10;99.90
21616;DHT22;10970;48.714;9.584;2022-09-09T16:51:06;20.10;99.90
21616;DHT22;10970;48.714;9.584;2022-09-09T16:53:33;20.10;99.90
21616;DHT22;10970;48.714;9.584;2022-09-09T16:56:05;20.10;99.90
21616;DHT22;10970;48.714;9.584;2022-09-09T16:58:31;20.10;99.90
21616;DHT22;10970;48.714;9.584;2022-09-09T17:01:00;19.90;99.90
21616;DHT22;10970;48.714;9.584;2022-09-09T17:03:27;19.90;99.90
21616;DHT22;10970;48.714;9.584;2022-09-09T17:05:53;19.90;99.90
21616;DHT22;10970;48.714;9.584;2022-09-09T17:08:18;19.90;99.90
21616;DHT22;10970;48.714;9.584;2022-09-09T17:10:44;19.90;99.90
21616;DHT22;10970;48.714;9.584;2022-09-09T17:13:10;19.80;99.90
21616;DHT22;10970;48.714;9.584;2022-09-09T17:15:41;19.70;99.90
21616;DHT22;10970;48.714;9.584;2022-09-09T17:18:09;19.60;99.90
21616;DHT22;10970;48.714;9.584;2022-09-09T17:20:39;19.50;99.90
21616;DHT22;10970;48.714;9.584;2022-09-09T17:23:06;19.40;99.90
21616;DHT22;10970;48.714;9.584;2022-09-09T17:25:32;19.10;99.90
21616;DHT22;10970;48.714;9.584;2022-09-09T17:27:58;19.30;99.90
21616;DHT22;10970;48.714;9.584;2022-09-09T17:30:25;19.30;99.90
21616;DHT22;10970;48.714;9.584;2022-09-09T17:32:51;19.10;99.90
21616;DHT22;10970;48.714;9.584;2022-09-09T17:35:16;19.00;99.90
21616;DHT22;10970;48.714;9.584;2022-09-09T17:37:43;19.00;99.90
21616;DHT22;10970;48.714;9.584;2022-09-09T17:40:09;18.90;99.90
21616;DHT22;10970;48.714;9.584;2022-09-09T17:42:35;18.90;99.90
21616;DHT22;10970;48.714;9.584;2022-09-09T17:45:00;18.80;99.90
21616;DHT22;10970;48.714;9.584;2022-09-09T17:47:27;18.70;99.90
21616;DHT22;10970;48.714;9.584;2022-09-09T17:49:53;18.60;99.90
21616;DHT22;10970;48.714;9.584;2022-09-09T17:52:19;18.50;99.90
21616;DHT22;10970;48.714;9.584;2022-09-09T17:54:45;18.40;99.90
21616;DHT22;10970;48.714;9.584;2022-09-09T17:57:11;18.30;99.90
21616;DHT22;10970;48.714;9.584;2022-09-09T17:59:37;18.30;99.90
21616;DHT22;10970;48.714;9.584;2022-09-09T18:02:02;18.10;99.90
21616;DHT22;10970;48.714;9.584;2022-09-09T18:04:30;18.00;99.90
21616;DHT22;10970;48.714;9.584;2022-09-09T18:06:56;17.90;99.90
21616;DHT22;10970;48.714;9.584;2022-09-09T18:09:24;17.90;99.90
21616;DHT22;10970;48.714;9.584;2022-09-09T18:11:53;17.80;99.90